Mc Leansville, North Carolina
Current Conditions -  °F | °C
As of 1:54 AM on Friday 31 Oct 2014 (Local Time) from KBUY Reporting Station
Clear Clear  
Wind Chill: 45°   Ceiling: Unl
Heat Index: 45°   Visibility: 10mi
Dew Point: 38°   Wind: 3mph
Humidity: 76%   Direction: 10°N
Pressure: 29.99"   Gusts: NA
Location:  36.112°N, 79.6658°W
Report Text: KBUY 310554Z AUTO 01003KT 10SM CLR 07/03 A2999 RMK AO2 SLP154 T00720033 10117 20072 58003
Loading
Personal Weather Stations






























Interactive Weather Map
Tropical Storm Tracking
New forecast layout! Learn more

10-Day Weather Forecast

Advertisements
Track Severe Weather on mobile